Time;durP1;ratioP1;P1;durP2;ratioP2;P2;SDS_P1;SDS_P2;PMS_P1;PMS_P2;Temp;Humidity;BMP_temperature;BMP_pressure;BME280_temperature;BME280_humidity;BME280_pressure;Samples;Min_cycle;Max_cycle;Signal;HPM_P1;HPM_P2
2021/08/01 00:01:23;;;;;;;12.77;11.82;;;;;;;;;;5098968;28;20029;-71
2021/08/01 00:03:52;;;;;;;13.40;11.73;;;;;;;;;;5099018;28;20027;-71
2021/08/01 00:06:18;;;;;;;12.43;11.43;;;;;;;;;;5098668;28;20032;-72
2021/08/01 00:08:45;;;;;;;12.13;11.15;;;;;;;;;;5098834;28;20412;-72
2021/08/01 00:11:11;;;;;;;13.02;11.93;;;24.90;67.70;;;;;;5098743;28;20316;-72
2021/08/01 00:13:37;;;;;;;13.35;11.95;;;;;;;;;;5098856;28;20030;-72
2021/08/01 00:16:03;;;;;;;13.25;11.95;;;;;;;;;;5098610;28;20025;-72
2021/08/01 00:18:29;;;;;;;12.82;11.75;;;;;;;;;;5098292;28;20078;-72
2021/08/01 00:20:55;;;;;;;14.10;12.10;;;;;;;;;;5098630;28;20023;-72
2021/08/01 00:23:22;;;;;;;13.68;11.63;;;;;;;;;;5098608;28;20031;-72
2021/08/01 00:25:48;;;;;;;12.68;11.77;;;;;;;;;;5098533;28;20048;-72
2021/08/01 00:28:14;;;;;;;12.18;11.25;;;;;;;;;;5098114;28;20028;-72
2021/08/01 00:30:40;;;;;;;13.90;12.60;;;;;;;;;;5098378;28;20024;-71
2021/08/01 00:33:05;;;;;;;12.80;11.80;;;24.40;71.10;;;;;;5098492;28;20021;-72
2021/08/01 00:35:31;;;;;;;13.32;11.98;;;;;;;;;;5098301;28;20395;-70
2021/08/01 00:37:57;;;;;;;13.05;11.75;;;;;;;;;;5098311;28;20016;-72
2021/08/01 00:40:23;;;;;;;13.15;12.05;;;;;;;;;;5098186;28;20028;-72
2021/08/01 00:42:50;;;;;;;13.48;12.27;;;;;;;;;;5097962;28;20024;-71
2021/08/01 00:45:17;;;;;;;12.95;11.90;;;;;;;;;;5098178;28;20039;-71
2021/08/01 00:47:43;;;;;;;13.32;12.15;;;;;;;;;;5097809;28;20031;-71
2021/08/01 00:50:09;;;;;;;16.75;12.02;;;;;;;;;;5097346;28;20044;-72
2021/08/01 00:52:36;;;;;;;12.82;11.77;;;;;;;;;;5098070;28;20026;-72
2021/08/01 00:55:10;;;;;;;13.27;11.98;;;;;;;;;;5097283;28;20023;-72
2021/08/01 00:57:36;;;;;;;19.00;8.35;;;;;;;;;;5097646;28;20486;-71
2021/08/01 01:00:03;;;;;;;12.75;11.82;;;;;;;;;;5097509;28;20028;-71
2021/08/01 01:02:37;;;;;;;13.75;12.45;;;23.90;74.50;;;;;;5097878;28;20027;-71
2021/08/01 01:05:03;;;;;;;15.48;12.38;;;;;;;;;;5097528;28;20420;-71
2021/08/01 01:07:44;;;;;;;13.13;12.13;;;;;;;;;;5097799;28;20085;-71
2021/08/01 01:10:13;;;;;;;13.65;12.40;;;;;;;;;;5097567;28;20024;-71
2021/08/01 01:12:44;;;;;;;14.40;7.72;;;;;;;;;;5097699;28;20020;-71
2021/08/01 01:15:14;;;;;;;14.25;12.75;;;;;;;;;;5097319;28;20430;-71
2021/08/01 01:17:42;;;;;;;13.75;12.52;;;;;;;;;;5097577;28;20042;-71
2021/08/01 01:20:14;;;;;;;13.23;12.02;;;;;;;;;;5097639;28;20115;-72
2021/08/01 01:22:43;;;;;;;15.07;13.68;;;;;;;;;;5097531;28;20038;-71
2021/08/01 01:25:17;;;;;;;13.57;12.25;;;;;;;;;;5097151;28;20031;-71
2021/08/01 01:27:48;;;;;;;14.15;12.27;;;23.60;75.70;;;;;;5097166;28;20412;-71
2021/08/01 01:30:14;;;;;;;13.65;12.50;;;;;;;;;;5096998;28;20408;-71
2021/08/01 01:32:47;;;;;;;14.10;12.95;;;;;;;;;;5097408;28;20040;-71
2021/08/01 01:35:18;;;;;;;13.52;12.32;;;23.50;74.90;;;;;;5097030;28;20023;-71
2021/08/01 01:37:52;;;;;;;13.20;12.10;;;;;;;;;;5097343;28;20297;-72
2021/08/01 01:40:20;;;;;;;13.18;12.00;;;;;;;;;;5097238;28;20020;-72
2021/08/01 01:42:47;;;;;;;13.40;12.30;;;;;;;;;;5097305;28;20035;-71
2021/08/01 01:45:17;;;;;;;14.23;13.05;;;;;;;;;;5097204;28;20024;-71
2021/08/01 01:47:47;;;;;;;13.35;12.07;;;23.70;73.20;;;;;;5097257;28;20077;-71
2021/08/01 01:50:16;;;;;;;14.40;12.98;;;;;;;;;;5096464;28;20451;-71
2021/08/01 01:52:47;;;;;;;14.02;12.82;;;;;;;;;;5097182;28;20362;-71
2021/08/01 01:55:14;;;;;;;14.23;13.00;;;23.80;74.30;;;;;;5097139;28;20020;-70
2021/08/01 01:57:40;;;;;;;13.95;12.68;;;;;;;;;;5097086;28;20020;-71
2021/08/01 02:00:07;;;;;;;13.90;12.80;;;;;;;;;;5097038;28;20024;-71
2021/08/01 02:02:36;;;;;;;14.15;12.75;;;;;;;;;;5096791;28;20028;-71
2021/08/01 02:05:02;;;;;;;14.65;13.25;;;;;;;;;;5097018;28;20031;-71
2021/08/01 02:07:29;;;;;;;14.52;13.35;;;23.40;74.60;;;;;;5100946;28;20032;-71
2021/08/01 02:10:01;;;;;;;14.73;13.45;;;;;;;;;;5101053;28;20016;-71
2021/08/01 02:12:33;;;;;;;14.70;13.48;;;;;;;;;;5101183;28;20056;-70
2021/08/01 02:15:09;;;;;;;15.18;13.95;;;;;;;;;;5101089;28;20039;-71
2021/08/01 02:17:54;;;;;;;11.85;10.77;;;;;;;;;;5101022;28;20346;-71
2021/08/01 02:20:22;;;;;;;14.60;13.40;;;;;;;;;;5099536;28;20031;-71
2021/08/01 02:22:49;;;;;;;15.38;13.93;;;;;;;;;;5100954;28;20327;-71
2021/08/01 02:25:16;;;;;;;15.35;13.70;;;;;;;;;;5100894;28;20292;-72
2021/08/01 02:27:43;;;;;;;12.60;11.60;;;;;;;;;;5100828;28;20027;-71
2021/08/01 02:30:10;;;;;;;14.70;13.50;;;;;;;;;;5100699;28;20028;-71
2021/08/01 02:32:36;;;;;;;14.57;13.35;;;;;;;;;;5100472;28;20028;-71
2021/08/01 02:35:03;;;;;;;14.00;13.00;;;;;;;;;;5100728;28;20293;-71
2021/08/01 02:37:29;;;;;;;14.30;13.18;;;;;;;;;;5100658;28;20016;-70
2021/08/01 02:39:56;;;;;;;14.55;13.15;;;;;;;;;;5100512;28;20077;-70
2021/08/01 02:42:25;;;;;;;14.40;12.90;;;;;;;;;;5100631;28;20366;-71
2021/08/01 02:44:55;;;;;;;14.48;13.02;;;23.00;77.10;;;;;;5100538;28;20358;-71
2021/08/01 02:47:22;;;;;;;15.45;13.98;;;;;;;;;;5100148;28;20027;-72
2021/08/01 02:49:50;;;;;;;14.77;13.57;;;;;;;;;;5099829;28;20052;-72
2021/08/01 02:52:24;;;;;;;14.60;13.38;;;22.80;78.80;;;;;;5100121;28;20020;-72
2021/08/01 02:54:51;;;;;;;11.82;10.82;;;22.70;77.30;;;;;;5100055;28;20028;-72
2021/08/01 02:57:17;;;;;;;14.25;13.02;;;;;;;;;;5100008;28;20031;-71
2021/08/01 02:59:44;;;;;;;14.85;13.63;;;;;;;;;;5100164;28;20024;-72
2021/08/01 03:02:11;;;;;;;15.55;14.07;;;;;;;;;;5099919;28;20032;-71
2021/08/01 03:04:39;;;;;;;14.45;13.30;;;;;;;;;;5100128;28;20035;-71
2021/08/01 03:07:08;;;;;;;16.02;14.55;;;;;;;;;;5100109;28;20095;-71
2021/08/01 03:09:35;;;;;;;14.43;13.15;;;;;;;;;;5099922;28;20032;-72
2021/08/01 03:12:10;;;;;;;14.30;13.20;;;;;;;;;;5099765;28;20320;-72
2021/08/01 03:14:36;;;;;;;15.13;13.93;;;;;;;;;;5099627;28;20024;-72
2021/08/01 03:17:03;;;;;;;15.38;13.73;;;;;;;;;;5099120;28;20024;-72
2021/08/01 03:19:29;;;;;;;14.73;13.50;;;;;;;;;;5099432;28;20036;-72
2021/08/01 03:21:54;;;;;;;15.52;14.18;;;;;;;;;;5099839;28;20020;-72
2021/08/01 03:24:20;;;;;;;14.40;13.40;;;;;;;;;;5099763;28;20097;-71
2021/08/01 03:26:46;;;;;;;14.38;13.18;;;;;;;;;;5099393;28;20079;-72
2021/08/01 03:29:12;;;;;;;15.23;13.77;;;;;;;;;;5099523;28;20082;-71
2021/08/01 03:31:39;;;;;;;15.00;13.73;;;;;;;;;;5099615;28;20079;-71
2021/08/01 03:34:05;;;;;;;14.57;13.68;;;;;;;;;;5099634;28;20075;-72
2021/08/01 03:36:31;;;;;;;20.65;13.98;;;;;;;;;;5099568;28;20114;-71
2021/08/01 03:38:57;;;;;;;14.80;13.68;;;;;;;;;;5099141;28;20024;-71
2021/08/01 03:41:23;;;;;;;15.25;14.05;;;;;;;;;;5099441;28;20094;-71
2021/08/01 03:43:49;;;;;;;15.80;14.57;;;;;;;;;;5099114;28;20096;-71
2021/08/01 03:46:15;;;;;;;16.08;14.43;;;;;;;;;;5099354;28;20024;-71
2021/08/01 03:48:41;;;;;;;16.92;15.20;;;;;;;;;;5098748;28;20331;-72
2021/08/01 03:51:07;;;;;;;15.77;14.68;;;;;;;;;;5098932;28;20416;-72
2021/08/01 03:53:33;;;;;;;15.95;14.63;;;;;;;;;;5099274;28;20027;-72
2021/08/01 03:56:03;;;;;;;15.05;13.95;;;;;;;;;;5098846;28;20028;-71
2021/08/01 03:58:29;;;;;;;18.88;14.57;;;;;;;;;;5099074;28;20031;-71
2021/08/01 04:00:55;;;;;;;16.05;14.77;;;;;;;;;;5099057;28;20031;-71
2021/08/01 04:03:21;;;;;;;15.48;14.15;;;;;;;;;;5098791;28;20411;-72
2021/08/01 04:05:47;;;;;;;17.65;15.77;;;;;;;;;;5098979;28;20319;-71
2021/08/01 04:08:13;;;;;;;16.42;15.05;;;;;;;;;;5098838;28;20024;-71
2021/08/01 04:10:39;;;;;;;16.83;15.57;;;;;;;;;;5098793;28;20035;-71
2021/08/01 04:13:06;;;;;;;16.60;15.20;;;;;;;;;;5098547;28;20430;-71
2021/08/01 04:15:32;;;;;;;15.63;14.32;;;;;;;;;;5098472;28;20020;-71
2021/08/01 04:18:01;;;;;;;16.60;15.32;;;;;;;;;;5098751;28;20055;-71
2021/08/01 04:20:27;;;;;;;17.08;15.55;;;;;;;;;;5098824;28;20043;-71
2021/08/01 04:22:54;;;;;;;16.83;15.23;;;;;;;;;;5098678;28;20028;-71
2021/08/01 04:25:20;;;;;;;16.48;15.15;;;;;;;;;;5098551;28;20146;-72
2021/08/01 04:27:46;;;;;;;16.48;15.13;;;;;;;;;;5098527;28;20020;-71
2021/08/01 04:30:12;;;;;;;16.85;15.45;;;;;;;;;;5096955;28;20408;-72
2021/08/01 04:32:38;;;;;;;16.02;14.93;;;;;;;;;;5098501;28;20031;-72
2021/08/01 04:35:05;;;;;;;16.95;15.35;;;;;;;;;;5098093;28;20028;-72
2021/08/01 04:37:31;;;;;;;17.02;15.38;;;;;;;;;;5098375;28;20047;-72
